Rumes, Belgium
Current Conditions -  °F | °C
As of 4:30 PM on Friday 19 Dec 2014 (Local Time) from LFQQ Reporting Station
Broken Clouds Broken Clouds  
Wind Chill: 44°   Ceiling: 4000
Heat Index: 48°   Visibility: 6mi
Dew Point: 39°   Wind: 9mph
Humidity: 71%   Direction: 310°NW
Pressure: 30.03"   Gusts: NA
Location:  50.55°N, 3.31°E
Report Text: LFQQ 191530Z 31008KT 9999 BKN040 09/04 Q1017 NOSIG
Loading
Personal Weather Stations






























Interactive Weather Map New forecast layout! Learn more

10-Day Weather Forecast

Advertisements
Track Severe Weather on mobile